createdAt,value
2019-06-07T00:03:29.708Z,10.90
2019-06-07T00:10:15.352Z,10.80
2019-06-07T00:16:57.819Z,10.60
2019-06-07T00:23:42.833Z,10.40
2019-06-07T00:30:44.456Z,10.20
2019-06-07T00:37:16.543Z,10.20
2019-06-07T00:44:01.631Z,10.10
2019-06-07T00:50:46.564Z,10.00
2019-06-07T00:57:31.431Z,10.00
2019-06-07T01:04:19.401Z,10.10
2019-06-07T01:11:03.054Z,10.10
2019-06-07T01:18:25.999Z,10.00
2019-06-07T01:24:34.488Z,10.00
2019-06-07T01:31:21.152Z,10.00
2019-06-07T01:38:05.910Z,9.90
2019-06-07T01:44:50.831Z,9.90
2019-06-07T01:51:35.698Z,9.80
2019-06-07T01:58:22.115Z,9.80
2019-06-07T02:05:07.836Z,9.90
2019-06-07T02:11:52.695Z,10.20
2019-06-07T02:18:55.702Z,10.20
2019-06-07T02:25:49.571Z,10.40
2019-06-07T02:32:10.710Z,10.50
2019-06-07T02:38:55.575Z,10.50
2019-06-07T02:45:43.588Z,10.60
2019-06-07T02:52:30.808Z,10.80
2019-06-07T02:59:13.632Z,10.90
2019-06-07T03:05:59.336Z,10.90
2019-06-07T03:12:47.022Z,10.80
2019-06-07T03:19:37.833Z,10.80
2019-06-07T03:26:23.634Z,10.80
2019-06-07T03:33:08.504Z,10.90
2019-06-07T03:39:53.372Z,11.10
2019-06-07T03:46:41.168Z,11.30
2019-06-07T03:53:24.806Z,11.40
2019-06-07T04:00:10.333Z,11.40
2019-06-07T04:06:55.235Z,11.50
2019-06-07T04:13:42.726Z,11.60
2019-06-07T04:20:26.738Z,11.60
2019-06-07T04:27:11.608Z,12.00
2019-06-07T04:33:56.471Z,12.50
2019-06-07T04:40:42.996Z,12.70
2019-06-07T04:47:29.660Z,12.70
2019-06-07T04:54:14.916Z,12.60
2019-06-07T05:01:03.337Z,13.60
2019-06-07T05:07:46.618Z,20.30
2019-06-07T05:14:33.207Z,23.80
2019-06-07T05:21:18.115Z,27.10
2019-06-07T05:28:02.970Z,29.20
2019-06-07T05:34:47.907Z,29.50
2019-06-07T05:41:34.167Z,29.90
2019-06-07T05:48:19.327Z,30.80
2019-06-07T05:55:04.734Z,32.10
2019-06-07T06:02:02.074Z,32.60
2019-06-07T06:08:37.743Z,34.00
2019-06-07T06:15:41.458Z,34.60
2019-06-07T06:22:09.442Z,35.20
2019-06-07T06:28:54.380Z,34.70
2019-06-07T06:35:39.869Z,35.70
2019-06-07T06:42:24.983Z,35.30
2019-06-07T06:49:09.971Z,34.00
2019-06-07T06:55:54.927Z,34.20
2019-06-07T07:03:27.033Z,34.90
2019-06-07T07:09:27.793Z,34.60
2019-06-07T07:16:13.498Z,33.50
2019-06-07T07:22:58.583Z,32.80
2019-06-07T07:29:47.384Z,35.40
2019-06-07T07:36:39.431Z,36.40
2019-06-07T07:43:17.752Z,37.10
2019-06-07T07:50:02.675Z,37.80
2019-06-07T07:56:49.098Z,37.50
2019-06-07T08:03:34.163Z,36.40
2019-06-07T08:10:19.570Z,39.00
2019-06-07T08:17:04.671Z,37.30
2019-06-07T08:23:51.591Z,38.00
2019-06-07T08:30:58.243Z,37.80
2019-06-07T08:37:23.731Z,37.10
2019-06-07T08:44:22.841Z,37.00
2019-06-07T08:51:00.851Z,36.00
2019-06-07T08:57:42.350Z,36.10
2019-06-07T09:04:27.466Z,35.30
2019-06-07T09:11:12.610Z,35.40
2019-06-07T09:18:35.462Z,36.20
2019-06-07T09:24:44.243Z,36.60
2019-06-07T09:31:51.300Z,36.10
2019-06-07T09:38:25.460Z,36.30
2019-06-07T09:45:06.537Z,35.60
2019-06-07T09:51:49.140Z,35.30
2019-06-07T09:58:52.837Z,34.00
2019-06-07T10:05:20.770Z,36.00
2019-06-07T10:12:06.501Z,35.50
2019-06-07T10:18:54.551Z,34.90
2019-06-07T10:25:40.255Z,35.70
2019-06-07T10:32:25.581Z,33.90
2019-06-07T10:39:11.354Z,34.50
2019-06-07T10:45:56.445Z,34.40
2019-06-07T10:52:41.302Z,34.10
2019-06-07T10:59:27.666Z,31.10
2019-06-07T11:06:14.219Z,28.90
2019-06-07T11:13:00.328Z,28.20
2019-06-07T11:19:45.247Z,26.80
2019-06-07T11:26:32.286Z,26.40
2019-06-07T11:33:18.880Z,26.60
2019-06-07T11:40:24.005Z,26.00
2019-06-07T11:46:53.142Z,26.10
2019-06-07T11:53:38.064Z,26.00
2019-06-07T12:00:23.390Z,25.70
2019-06-07T12:07:10.809Z,26.30
2019-06-07T12:13:55.950Z,26.30
2019-06-07T12:20:41.193Z,26.30
2019-06-07T12:27:27.055Z,26.80
2019-06-07T12:34:13.166Z,26.50
2019-06-07T12:40:58.329Z,26.50
2019-06-07T12:47:43.807Z,26.70
2019-06-07T12:54:28.960Z,27.00
2019-06-07T13:01:14.002Z,27.10
2019-06-07T13:08:00.784Z,27.50
2019-06-07T13:14:47.974Z,27.40
2019-06-07T13:21:32.911Z,27.50
2019-06-07T13:28:18.992Z,27.70
2019-06-07T13:35:07.554Z,27.90
2019-06-07T13:41:52.769Z,27.90
2019-06-07T13:48:38.936Z,27.70
2019-06-07T13:55:24.196Z,27.90
2019-06-07T14:02:09.130Z,28.30
2019-06-07T14:08:54.067Z,28.60
2019-06-07T14:15:39.006Z,28.80
2019-06-07T14:22:24.755Z,29.00
2019-06-07T14:29:09.914Z,29.00
2019-06-07T14:35:56.410Z,29.00
2019-06-07T14:42:41.673Z,29.00
2019-06-07T14:49:28.120Z,29.20
2019-06-07T14:56:13.277Z,29.40
2019-06-07T15:02:58.260Z,29.50
2019-06-07T15:09:43.448Z,29.40
2019-06-07T15:16:30.148Z,29.50
2019-06-07T15:23:16.079Z,29.40
2019-06-07T15:30:09.564Z,29.30
2019-06-07T15:36:47.876Z,29.30
2019-06-07T15:43:33.286Z,29.40
2019-06-07T15:50:18.484Z,29.60
2019-06-07T15:57:03.434Z,29.70
2019-06-07T16:03:48.376Z,29.80
2019-06-07T16:10:34.589Z,29.70
2019-06-07T16:17:19.638Z,29.90
2019-06-07T16:24:05.100Z,30.00
2019-06-07T16:30:50.140Z,30.10
2019-06-07T16:37:36.258Z,30.00
2019-06-07T16:44:22.708Z,29.40
2019-06-07T16:51:08.224Z,27.60
2019-06-07T16:57:53.272Z,26.80
2019-06-07T17:04:39.445Z,26.30
2019-06-07T17:11:25.089Z,26.10
2019-06-07T17:18:10.046Z,25.80
2019-06-07T17:24:54.979Z,25.50
2019-06-07T17:31:39.909Z,25.20
2019-06-07T17:38:24.952Z,24.70
2019-06-07T17:45:11.043Z,23.50
2019-06-07T17:51:58.442Z,22.40
2019-06-07T17:58:44.369Z,21.20
2019-06-07T18:05:30.421Z,20.70
2019-06-07T18:12:16.119Z,20.10
2019-06-07T18:19:01.303Z,19.80
2019-06-07T18:25:46.552Z,19.40
2019-06-07T18:32:31.423Z,19.20
2019-06-07T18:39:16.390Z,19.00
2019-06-07T18:46:01.398Z,18.80
2019-06-07T18:52:46.792Z,18.70
2019-06-07T18:59:31.915Z,18.70
2019-06-07T19:06:17.257Z,18.60
2019-06-07T19:13:02.562Z,18.40
2019-06-07T19:19:48.180Z,18.20
2019-06-07T19:26:34.253Z,18.00
2019-06-07T19:33:19.219Z,18.00
2019-06-07T19:40:05.712Z,17.90
2019-06-07T19:46:50.567Z,18.00
2019-06-07T19:53:35.431Z,17.90
2019-06-07T20:00:20.832Z,17.60
2019-06-07T20:07:05.951Z,17.60
2019-06-07T20:13:50.836Z,17.40
2019-06-07T20:20:35.701Z,17.30
2019-06-07T20:27:20.551Z,17.30
2019-06-07T20:34:05.802Z,17.30
2019-06-07T20:40:50.910Z,17.30
2019-06-07T20:47:35.912Z,17.30
2019-06-07T20:54:21.834Z,17.30
2019-06-07T21:01:07.196Z,17.40
2019-06-07T21:07:52.334Z,17.30
2019-06-07T21:14:37.214Z,17.20
2019-06-07T21:21:22.135Z,17.30
2019-06-07T21:28:07.583Z,17.30
2019-06-07T21:34:52.899Z,17.20
2019-06-07T21:41:37.831Z,17.20
2019-06-07T21:48:23.907Z,17.10
2019-06-07T21:55:09.704Z,17.10
2019-06-07T22:01:54.773Z,16.90
2019-06-07T22:08:39.779Z,16.40
2019-06-07T22:15:34.062Z,16.20
2019-06-07T22:22:12.963Z,16.00
2019-06-07T22:28:58.352Z,15.90
2019-06-07T22:35:43.506Z,15.70
2019-06-07T22:42:28.686Z,15.80
2019-06-07T22:49:15.374Z,15.80
2019-06-07T22:56:02.279Z,15.80
2019-06-07T23:02:47.403Z,15.90
2019-06-07T23:09:32.254Z,15.90
2019-06-07T23:16:17.781Z,15.90
2019-06-07T23:23:02.886Z,15.90
2019-06-07T23:29:47.879Z,15.70
2019-06-07T23:36:33.722Z,15.60
2019-06-07T23:43:19.598Z,15.60
2019-06-07T23:50:06.153Z,15.50
2019-06-07T23:56:52.519Z,15.30
